createdAt,value
2022-12-01T00:01:41.426Z,47.08
2022-12-01T00:04:07.942Z,47.35
2022-12-01T00:06:34.323Z,45.60
2022-12-01T00:09:20.265Z,46.42
2022-12-01T00:11:47.213Z,47.00
2022-12-01T00:14:14.487Z,44.08
2022-12-01T00:16:41.063Z,45.00
2022-12-01T00:19:08.660Z,45.63
2022-12-01T00:21:35.047Z,46.53
2022-12-01T00:24:01.447Z,45.28
2022-12-01T00:26:27.966Z,45.78
2022-12-01T00:28:58.095Z,44.85
2022-12-01T00:31:25.755Z,47.00
2022-12-01T00:33:52.551Z,43.53
2022-12-01T00:36:19.039Z,46.70
2022-12-01T00:38:45.763Z,46.03
2022-12-01T00:41:12.320Z,45.42
2022-12-01T00:43:39.674Z,46.30
2022-12-01T00:46:06.936Z,46.45
2022-12-01T00:48:33.641Z,48.10
2022-12-01T00:51:00.092Z,46.45
2022-12-01T00:53:26.559Z,47.22
2022-12-01T00:55:55.690Z,46.45
2022-12-01T00:58:22.986Z,46.17
2022-12-01T01:00:50.074Z,46.17
2022-12-01T01:03:16.557Z,46.55
2022-12-01T01:05:43.769Z,46.28
2022-12-01T01:08:12.882Z,45.60
2022-12-01T01:10:44.890Z,45.90
2022-12-01T01:13:12.778Z,47.72
2022-12-01T01:15:39.509Z,48.15
2022-12-01T01:18:06.776Z,45.38
2022-12-01T01:20:33.680Z,46.05
2022-12-01T01:23:00.093Z,47.75
2022-12-01T01:25:26.801Z,47.25
2022-12-01T01:27:53.296Z,47.67
2022-12-01T01:30:20.126Z,48.67
2022-12-01T01:32:46.551Z,48.70
2022-12-01T01:35:13.099Z,47.83
2022-12-01T01:37:39.531Z,49.30
2022-12-01T01:40:06.684Z,46.67
2022-12-01T01:42:33.095Z,46.30
2022-12-01T01:44:59.531Z,48.63
2022-12-01T01:47:40.222Z,48.35
2022-12-01T01:50:09.560Z,48.13
2022-12-01T01:53:13.634Z,47.05
2022-12-01T01:55:40.075Z,47.57
2022-12-01T01:58:09.310Z,49.08
2022-12-01T02:00:37.360Z,48.03
2022-12-01T02:03:04.073Z,47.67
2022-12-01T02:05:33.847Z,48.13
2022-12-01T02:08:02.123Z,49.22
2022-12-01T02:10:51.227Z,49.22
2022-12-01T02:13:51.365Z,47.30
2022-12-01T02:16:30.302Z,48.72
2022-12-01T02:19:16.313Z,45.55
2022-12-01T02:21:59.727Z,46.70
2022-12-01T02:24:26.060Z,46.10
2022-12-01T02:27:01.302Z,46.10
2022-12-01T02:29:49.376Z,46.00
2022-12-01T02:32:23.546Z,45.78
2022-12-01T02:37:32.629Z,44.50
2022-12-01T02:40:26.160Z,45.03
2022-12-01T02:43:03.307Z,45.13
2022-12-01T02:45:33.222Z,44.90
2022-12-01T02:48:03.078Z,46.80
2022-12-01T02:50:32.507Z,45.90
2022-12-01T02:53:01.083Z,47.83
2022-12-01T02:55:27.485Z,45.58
2022-12-01T02:57:53.885Z,48.10
2022-12-01T03:00:20.350Z,47.63
2022-12-01T03:03:05.233Z,44.75
2022-12-01T03:06:08.379Z,46.17
2022-12-01T03:08:54.723Z,48.53
2022-12-01T03:11:34.272Z,47.08
2022-12-01T03:14:12.191Z,47.30
2022-12-01T03:17:03.635Z,47.85
2022-12-01T03:19:43.791Z,47.03
2022-12-01T03:22:27.039Z,47.00
2022-12-01T03:24:55.670Z,48.78
2022-12-01T03:27:27.973Z,49.60
2022-12-01T03:29:57.920Z,48.65
2022-12-01T03:32:41.663Z,49.42
2022-12-01T03:35:20.487Z,49.20
2022-12-01T03:37:53.485Z,50.28
2022-12-01T03:40:27.085Z,48.80
2022-12-01T03:43:01.292Z,50.60
2022-12-01T03:45:34.005Z,54.50
2022-12-01T03:48:00.988Z,48.65
2022-12-01T03:50:59.519Z,51.47
2022-12-01T03:53:32.974Z,48.45
2022-12-01T03:56:04.757Z,48.80
2022-12-01T03:58:43.743Z,49.78
2022-12-01T04:01:10.361Z,51.10
2022-12-01T04:03:36.900Z,50.95
2022-12-01T04:06:03.524Z,50.85
2022-12-01T04:08:30.684Z,47.55
2022-12-01T04:10:57.429Z,49.13
2022-12-01T04:13:23.871Z,49.13
2022-12-01T04:15:51.027Z,45.45
2022-12-01T04:18:18.293Z,47.90
2022-12-01T04:20:49.724Z,47.58
2022-12-01T04:23:36.688Z,45.15
2022-12-01T04:26:05.014Z,46.40
2022-12-01T04:28:31.599Z,47.47
2022-12-01T04:30:58.157Z,45.33
2022-12-01T04:33:24.598Z,44.10
2022-12-01T04:35:59.188Z,43.95
2022-12-01T04:38:30.286Z,44.05
2022-12-01T04:40:57.119Z,45.45
2022-12-01T04:43:23.510Z,44.17
2022-12-01T04:45:49.915Z,45.05
2022-12-01T04:48:16.317Z,44.13
2022-12-01T04:50:42.715Z,42.92
2022-12-01T04:53:09.116Z,43.47
2022-12-01T04:55:39.275Z,44.42
2022-12-01T04:58:05.872Z,42.00
2022-12-01T05:00:33.130Z,42.30
2022-12-01T05:03:00.468Z,41.63
2022-12-01T05:05:27.013Z,44.08
2022-12-01T05:07:53.504Z,44.45
2022-12-01T05:10:20.151Z,45.05
2022-12-01T05:12:46.555Z,43.67
2022-12-01T05:15:13.444Z,42.65
2022-12-01T05:17:40.050Z,43.40
2022-12-01T05:20:25.777Z,42.80
2022-12-01T05:23:05.301Z,42.63
2022-12-01T05:25:32.630Z,43.38
2022-12-01T05:27:59.148Z,43.03
2022-12-01T05:30:28.550Z,42.55
2022-12-01T05:32:55.563Z,43.40
2022-12-01T05:35:22.001Z,41.67
2022-12-01T05:37:48.444Z,43.17
2022-12-01T05:40:14.866Z,40.78
2022-12-01T05:42:41.301Z,40.63
2022-12-01T05:45:08.061Z,42.78
2022-12-01T05:47:34.454Z,40.28
2022-12-01T05:50:05.424Z,40.45
2022-12-01T05:52:34.777Z,39.92
2022-12-01T05:55:02.320Z,40.17
2022-12-01T05:57:28.759Z,41.13
2022-12-01T05:59:55.281Z,41.53
2022-12-01T06:02:21.800Z,38.55
2022-12-01T06:04:48.278Z,40.70
2022-12-01T06:07:14.683Z,39.97
2022-12-01T06:09:41.096Z,43.47
2022-12-01T06:12:07.553Z,43.15
2022-12-01T06:14:33.942Z,47.33
2022-12-01T06:17:00.431Z,43.20
2022-12-01T06:19:26.872Z,44.60
2022-12-01T06:21:53.268Z,41.13
2022-12-01T06:24:19.639Z,42.42
2022-12-01T06:26:46.005Z,39.03
2022-12-01T06:29:12.479Z,39.13
2022-12-01T06:31:38.984Z,40.33
2022-12-01T06:34:05.584Z,39.22
2022-12-01T06:36:32.144Z,39.63
2022-12-01T06:38:58.574Z,41.22
2022-12-01T06:41:25.052Z,39.83
2022-12-01T06:43:51.501Z,38.67
2022-12-01T06:46:18.062Z,39.00
2022-12-01T06:48:47.969Z,45.45
2022-12-01T06:51:14.539Z,42.42
2022-12-01T06:53:40.939Z,38.38
2022-12-01T06:56:07.545Z,41.38
2022-12-01T06:58:34.659Z,39.45
2022-12-01T07:01:11.045Z,38.50
2022-12-01T07:03:38.206Z,39.40
2022-12-01T07:06:05.281Z,38.65
2022-12-01T07:08:32.772Z,38.63
2022-12-01T07:11:00.670Z,39.55
2022-12-01T07:13:32.782Z,38.67
2022-12-01T07:16:00.219Z,39.45
2022-12-01T07:18:26.663Z,38.75
2022-12-01T07:20:53.089Z,38.47
2022-12-01T07:23:21.347Z,39.25
2022-12-01T07:25:47.767Z,38.08
2022-12-01T07:28:14.172Z,40.13
2022-12-01T07:30:40.598Z,40.03
2022-12-01T07:33:06.985Z,39.03
2022-12-01T07:35:33.443Z,41.17
2022-12-01T07:37:59.827Z,38.55
2022-12-01T07:40:26.278Z,40.03
2022-12-01T07:42:52.647Z,38.78
2022-12-01T07:45:19.061Z,38.30
2022-12-01T07:47:45.523Z,36.17
2022-12-01T07:50:12.096Z,36.05
2022-12-01T07:52:38.506Z,34.28
2022-12-01T07:55:05.384Z,36.83
2022-12-01T07:57:31.809Z,36.00
2022-12-01T07:59:58.239Z,35.75
2022-12-01T08:02:24.673Z,34.90
2022-12-01T08:04:51.120Z,35.38
2022-12-01T08:07:17.515Z,34.28
2022-12-01T08:09:44.859Z,35.42
2022-12-01T08:12:11.336Z,34.63
2022-12-01T08:14:37.771Z,32.83
2022-12-01T08:17:04.204Z,34.67
2022-12-01T08:19:30.619Z,34.80
2022-12-01T08:21:57.025Z,33.83
2022-12-01T08:24:23.409Z,34.17
2022-12-01T08:26:49.839Z,34.40
2022-12-01T08:29:20.103Z,34.70
2022-12-01T08:31:47.240Z,33.28
2022-12-01T08:34:13.596Z,34.28
2022-12-01T08:36:40.185Z,32.95
2022-12-01T08:39:08.256Z,32.75
2022-12-01T08:41:34.949Z,34.15
2022-12-01T08:44:01.645Z,32.55
2022-12-01T08:46:32.274Z,31.05
2022-12-01T08:48:58.953Z,33.95
2022-12-01T08:51:26.058Z,33.45
2022-12-01T08:53:52.514Z,31.75
2022-12-01T08:56:28.776Z,33.20
2022-12-01T08:58:56.144Z,31.52
2022-12-01T09:01:23.072Z,30.42
2022-12-01T09:04:04.941Z,31.13
2022-12-01T09:06:33.578Z,31.23
2022-12-01T09:09:00.487Z,30.85
2022-12-01T09:11:27.158Z,31.73
2022-12-01T09:13:54.808Z,32.75
2022-12-01T09:16:21.936Z,32.45
2022-12-01T09:18:48.855Z,32.30
2022-12-01T09:21:27.475Z,32.78
2022-12-01T09:23:54.199Z,32.00
2022-12-01T09:26:20.873Z,33.17
2022-12-01T09:28:49.750Z,31.25
2022-12-01T09:31:18.334Z,31.27
2022-12-01T09:33:45.127Z,32.70
2022-12-01T09:36:11.533Z,30.98
2022-12-01T09:38:38.732Z,29.95
2022-12-01T09:41:17.981Z,32.60
2022-12-01T09:44:06.038Z,31.65
2022-12-01T09:46:55.102Z,31.73
2022-12-01T09:49:38.100Z,32.47
2022-12-01T09:52:04.713Z,31.75
2022-12-01T09:54:31.079Z,34.13
2022-12-01T09:56:59.444Z,32.97
2022-12-01T09:59:33.049Z,33.28
2022-12-01T10:02:17.185Z,35.58
2022-12-01T10:04:48.380Z,31.77
2022-12-01T10:07:26.997Z,32.58
2022-12-01T10:09:57.840Z,33.92
2022-12-01T10:12:27.811Z,32.90
2022-12-01T10:15:21.687Z,32.05
2022-12-01T10:18:05.354Z,32.95
2022-12-01T10:20:41.124Z,30.40
2022-12-01T10:23:37.053Z,32.13
2022-12-01T10:26:29.872Z,31.70
2022-12-01T10:29:21.181Z,33.17
2022-12-01T10:32:09.288Z,31.45
2022-12-01T10:34:39.440Z,31.70
2022-12-01T10:37:06.851Z,34.20
2022-12-01T10:39:46.431Z,29.58
2022-12-01T10:42:30.693Z,32.47
2022-12-01T10:45:02.566Z,31.27
2022-12-01T10:47:29.421Z,31.70
2022-12-01T10:49:56.268Z,31.85
2022-12-01T10:52:41.737Z,31.90
2022-12-01T10:55:23.293Z,31.02
2022-12-01T10:57:50.832Z,31.42
2022-12-01T11:03:23.366Z,31.98
2022-12-01T11:05:53.748Z,33.25
2022-12-01T11:08:29.553Z,32.72
2022-12-01T11:10:56.672Z,31.77
2022-12-01T11:13:30.380Z,32.55
2022-12-01T11:16:01.487Z,33.58
2022-12-01T11:18:27.914Z,32.55
2022-12-01T11:21:06.177Z,34.95
2022-12-01T11:23:36.365Z,32.10
2022-12-01T11:26:35.115Z,33.40
2022-12-01T11:29:04.791Z,34.35
2022-12-01T11:31:47.962Z,32.78
2022-12-01T11:34:27.036Z,33.92
2022-12-01T11:36:56.812Z,36.30
2022-12-01T11:39:28.536Z,35.08
2022-12-01T11:42:03.451Z,33.53
2022-12-01T11:47:25.067Z,34.33
2022-12-01T11:49:56.468Z,34.50
2022-12-01T11:52:27.892Z,35.35
2022-12-01T11:54:56.724Z,33.47
2022-12-01T11:57:34.284Z,32.92
2022-12-01T12:00:12.148Z,33.10
2022-12-01T12:03:26.707Z,33.05
2022-12-01T12:09:30.752Z,33.40
2022-12-01T12:11:59.863Z,31.40
2022-12-01T12:14:48.548Z,31.08
2022-12-01T12:17:33.855Z,31.58
2022-12-01T12:20:21.892Z,27.67
2022-12-01T12:23:09.076Z,34.95
2022-12-01T12:25:52.508Z,35.80
2022-12-01T12:28:33.739Z,31.43
2022-12-01T12:31:24.615Z,31.08
2022-12-01T12:34:13.323Z,32.05
2022-12-01T12:36:46.802Z,30.83
2022-12-01T12:39:19.054Z,29.77
2022-12-01T12:41:48.572Z,31.77
2022-12-01T12:44:42.960Z,29.52
2022-12-01T12:47:36.354Z,28.67
2022-12-01T12:50:17.272Z,30.10
2022-12-01T12:52:51.475Z,28.83
2022-12-01T12:55:39.510Z,29.08
2022-12-01T12:58:18.428Z,29.60
2022-12-01T13:00:52.073Z,28.17
2022-12-01T13:03:59.756Z,29.63
2022-12-01T13:06:39.553Z,30.88
2022-12-01T13:09:17.778Z,30.25
2022-12-01T13:11:51.544Z,29.77
2022-12-01T13:14:24.604Z,28.95
2022-12-01T13:16:55.744Z,27.67
2022-12-01T13:19:26.311Z,28.20
2022-12-01T13:21:54.625Z,28.70
2022-12-01T13:24:24.034Z,27.50
2022-12-01T13:27:10.663Z,28.70
2022-12-01T13:29:44.306Z,27.77
2022-12-01T13:32:44.019Z,28.80
2022-12-01T13:35:37.232Z,29.15
2022-12-01T13:38:36.408Z,28.20
2022-12-01T13:41:18.056Z,29.90
2022-12-01T13:43:53.276Z,27.15
2022-12-01T13:46:26.559Z,28.65
2022-12-01T13:48:58.505Z,29.20
2022-12-01T13:51:26.241Z,27.27
2022-12-01T13:53:56.151Z,28.80
2022-12-01T13:56:27.216Z,26.63
2022-12-01T13:58:54.635Z,28.30
2022-12-01T14:01:21.390Z,28.45
2022-12-01T14:04:03.541Z,30.90
2022-12-01T14:06:38.303Z,32.65
2022-12-01T14:09:14.548Z,31.77
2022-12-01T14:11:54.184Z,29.23
2022-12-01T14:14:26.242Z,29.35
2022-12-01T14:17:02.544Z,30.63
2022-12-01T14:19:34.363Z,29.48
2022-12-01T14:22:02.337Z,28.67
2022-12-01T14:24:36.346Z,29.13
2022-12-01T14:27:04.940Z,29.92
2022-12-01T14:29:33.070Z,28.63
2022-12-01T14:32:19.397Z,28.90
2022-12-01T14:34:49.740Z,27.48
2022-12-01T14:37:19.014Z,27.30
2022-12-01T14:40:03.141Z,28.00
2022-12-01T14:42:56.473Z,27.63
2022-12-01T14:45:28.939Z,29.70
2022-12-01T14:48:09.855Z,29.95
2022-12-01T14:50:49.895Z,28.52
2022-12-01T14:53:22.342Z,29.10
2022-12-01T14:55:59.533Z,28.98
2022-12-01T14:58:28.978Z,25.25
2022-12-01T15:01:00.555Z,28.83
2022-12-01T15:03:33.305Z,26.88
2022-12-01T15:05:59.947Z,28.77
2022-12-01T15:08:58.368Z,27.63
2022-12-01T15:11:30.083Z,28.48
2022-12-01T15:13:57.785Z,28.92
2022-12-01T15:16:28.887Z,28.88
2022-12-01T15:18:55.572Z,30.27
2022-12-01T15:21:24.020Z,28.98
2022-12-01T15:24:06.492Z,29.38
2022-12-01T15:26:35.530Z,26.70
2022-12-01T15:29:14.818Z,28.25
2022-12-01T15:31:43.831Z,28.65
2022-12-01T15:34:17.131Z,31.42
2022-12-01T15:36:44.509Z,30.60
2022-12-01T15:39:16.899Z,29.00
2022-12-01T15:41:53.969Z,28.98
2022-12-01T15:44:30.000Z,29.27
2022-12-01T15:46:56.970Z,30.17
2022-12-01T15:49:30.332Z,31.70
2022-12-01T15:52:12.461Z,30.75
2022-12-01T15:54:39.796Z,31.25
2022-12-01T15:57:07.198Z,31.92
2022-12-01T15:59:43.945Z,31.13
2022-12-01T16:02:19.298Z,31.90
2022-12-01T16:04:47.156Z,35.72
2022-12-01T16:07:14.344Z,35.05
2022-12-01T16:09:42.804Z,32.25
2022-12-01T16:12:09.353Z,33.97
2022-12-01T16:14:36.685Z,33.30
2022-12-01T16:17:05.053Z,32.30
2022-12-01T16:19:33.547Z,33.85
2022-12-01T16:22:13.203Z,32.50
2022-12-01T16:24:52.393Z,32.90
2022-12-01T16:27:29.696Z,34.17
2022-12-01T16:30:02.129Z,33.20
2022-12-01T16:32:35.134Z,35.30
2022-12-01T16:35:04.230Z,33.42
2022-12-01T16:37:31.518Z,34.00
2022-12-01T16:39:58.571Z,34.75
2022-12-01T16:42:25.497Z,32.97
2022-12-01T16:44:52.689Z,33.40
2022-12-01T16:47:23.121Z,34.70
2022-12-01T16:49:50.373Z,33.33
2022-12-01T16:55:04.345Z,35.50
2022-12-01T16:57:30.919Z,36.08
2022-12-01T16:59:57.435Z,34.83
2022-12-01T17:02:23.974Z,34.90
2022-12-01T17:04:50.761Z,35.65
2022-12-01T17:07:17.508Z,37.30
2022-12-01T17:09:44.029Z,36.30
2022-12-01T17:12:10.635Z,38.05
2022-12-01T17:14:37.348Z,40.50
2022-12-01T17:17:03.905Z,39.90
2022-12-01T17:19:30.400Z,41.72
2022-12-01T17:21:56.975Z,40.72
2022-12-01T17:24:23.535Z,39.78
2022-12-01T17:26:50.038Z,39.60
2022-12-01T17:29:16.789Z,41.55
2022-12-01T17:31:43.332Z,38.70
2022-12-01T17:34:09.926Z,39.05
2022-12-01T17:36:36.594Z,38.72
2022-12-01T17:39:03.210Z,38.92
2022-12-01T17:41:35.483Z,40.47
2022-12-01T17:44:04.185Z,38.50
2022-12-01T17:46:31.676Z,39.85
2022-12-01T17:48:59.243Z,39.58
2022-12-01T17:51:25.787Z,38.95
2022-12-01T17:53:53.810Z,35.55
2022-12-01T17:56:20.312Z,38.17
2022-12-01T17:58:49.325Z,36.10
2022-12-01T18:01:17.698Z,38.30
2022-12-01T18:03:44.773Z,35.47
2022-12-01T18:06:12.170Z,37.10
2022-12-01T18:08:39.797Z,35.35
2022-12-01T18:11:12.641Z,39.17
2022-12-01T18:13:41.871Z,36.20
2022-12-01T18:16:15.623Z,37.30
2022-12-01T18:18:42.523Z,36.97
2022-12-01T18:21:11.878Z,36.67
2022-12-01T18:23:38.754Z,35.30
2022-12-01T18:26:15.657Z,34.80
2022-12-01T18:28:43.001Z,34.55
2022-12-01T18:31:12.593Z,35.33
2022-12-01T18:33:41.167Z,35.45
2022-12-01T18:36:22.573Z,35.25
2022-12-01T18:38:50.248Z,34.25
2022-12-01T18:41:17.596Z,34.55
2022-12-01T18:43:44.679Z,37.42
2022-12-01T18:46:13.467Z,34.90
2022-12-01T18:48:47.900Z,33.42
2022-12-01T18:51:15.072Z,34.28
2022-12-01T18:53:42.035Z,35.95
2022-12-01T18:56:11.854Z,35.47
2022-12-01T18:58:39.582Z,35.67
2022-12-01T19:01:21.086Z,36.95
2022-12-01T19:03:48.050Z,36.38
2022-12-01T19:06:15.552Z,36.88
2022-12-01T19:08:42.484Z,37.55
2022-12-01T19:11:09.193Z,38.03
2022-12-01T19:13:36.128Z,37.05
2022-12-01T19:16:10.452Z,37.33
2022-12-01T19:18:37.888Z,37.72
2022-12-01T19:21:07.717Z,34.50
2022-12-01T19:23:35.105Z,38.63
2022-12-01T19:26:06.970Z,36.83
2022-12-01T19:28:34.915Z,35.92
2022-12-01T19:31:06.865Z,35.55
2022-12-01T19:33:34.118Z,38.80
2022-12-01T19:36:15.662Z,37.22
2022-12-01T19:38:42.518Z,37.40
2022-12-01T19:41:09.630Z,36.30
2022-12-01T19:43:37.478Z,35.05
2022-12-01T19:46:07.670Z,37.85
2022-12-01T19:48:34.569Z,40.10
2022-12-01T19:51:01.283Z,36.83
2022-12-01T19:53:33.361Z,36.58
2022-12-01T19:56:02.652Z,36.47
2022-12-01T19:58:29.669Z,36.53
2022-12-01T20:01:09.068Z,36.92
2022-12-01T20:03:36.106Z,35.83
2022-12-01T20:06:08.499Z,37.85
2022-12-01T20:08:36.182Z,35.72
2022-12-01T20:11:04.233Z,35.03
2022-12-01T20:13:32.700Z,34.20
2022-12-01T20:16:11.292Z,35.35
2022-12-01T20:18:39.108Z,34.55
2022-12-01T20:21:27.556Z,33.08
2022-12-01T20:23:58.120Z,35.00
2022-12-01T20:26:30.658Z,34.88
2022-12-01T20:29:05.653Z,31.20
2022-12-01T20:31:33.624Z,32.28
2022-12-01T20:34:04.324Z,34.20
2022-12-01T20:36:31.060Z,31.90
2022-12-01T20:38:57.861Z,33.28
2022-12-01T20:41:31.621Z,31.92
2022-12-01T20:44:07.458Z,31.63
2022-12-01T20:46:40.928Z,31.33
2022-12-01T20:49:08.212Z,33.57
2022-12-01T20:51:34.883Z,32.95
2022-12-01T20:54:27.264Z,32.95
2022-12-01T20:56:49.985Z,32.95
2022-12-01T20:59:16.513Z,31.52
2022-12-01T21:01:43.015Z,32.25
2022-12-01T21:04:09.551Z,31.73
2022-12-01T21:06:36.113Z,32.80
2022-12-01T21:09:04.178Z,33.28
2022-12-01T21:12:00.491Z,31.98
2022-12-01T21:14:37.724Z,31.92
2022-12-01T21:17:18.303Z,30.65
2022-12-01T21:19:56.464Z,31.95
2022-12-01T21:22:24.998Z,32.08
2022-12-01T21:24:52.217Z,34.47
2022-12-01T21:27:19.176Z,34.25
2022-12-01T21:29:48.349Z,32.45
2022-12-01T21:32:18.985Z,34.67
2022-12-01T21:34:47.506Z,33.25
2022-12-01T21:37:23.981Z,34.22
2022-12-01T21:39:52.422Z,35.17
2022-12-01T21:42:22.175Z,35.80
2022-12-01T21:44:49.347Z,35.45
2022-12-01T21:47:26.185Z,34.90
2022-12-01T21:49:56.015Z,34.40
2022-12-01T21:52:30.380Z,35.10
2022-12-01T21:55:23.141Z,33.78
2022-12-01T21:57:54.121Z,34.83
2022-12-01T22:00:30.033Z,33.08
2022-12-01T22:03:08.623Z,34.55
2022-12-01T22:05:37.492Z,32.13
2022-12-01T22:08:29.237Z,33.42
2022-12-01T22:11:09.609Z,34.17
2022-12-01T22:13:42.387Z,32.53
2022-12-01T22:16:25.507Z,32.50
2022-12-01T22:18:54.899Z,31.42
2022-12-01T22:21:27.699Z,32.03
2022-12-01T22:24:27.603Z,30.80
2022-12-01T22:27:11.936Z,30.85
2022-12-01T22:32:12.773Z,29.00
2022-12-01T22:34:42.366Z,27.98
2022-12-01T22:37:19.219Z,28.65
2022-12-01T22:39:48.636Z,28.55
2022-12-01T22:42:20.743Z,29.02
2022-12-01T22:44:47.334Z,29.05
2022-12-01T22:47:14.503Z,28.48
2022-12-01T22:49:42.336Z,28.50
2022-12-01T22:52:28.107Z,30.27
2022-12-01T22:54:54.862Z,31.90
2022-12-01T22:57:26.031Z,32.63
2022-12-01T22:59:53.443Z,32.10
2022-12-01T23:02:37.966Z,33.38
2022-12-01T23:05:25.486Z,33.20
2022-12-01T23:07:53.345Z,32.78
2022-12-01T23:10:22.019Z,33.83
2022-12-01T23:12:51.156Z,33.33
2022-12-01T23:15:36.881Z,35.13
2022-12-01T23:18:38.834Z,37.00
2022-12-01T23:21:05.307Z,36.25
2022-12-01T23:23:36.795Z,37.08
2022-12-01T23:26:07.375Z,37.53
2022-12-01T23:28:36.649Z,39.83
2022-12-01T23:31:03.190Z,37.95
2022-12-01T23:33:32.600Z,38.28
2022-12-01T23:36:14.434Z,38.17
2022-12-01T23:38:47.619Z,38.72
2022-12-01T23:41:27.691Z,39.90
2022-12-01T23:43:55.996Z,39.55
2022-12-01T23:46:26.380Z,39.40
2022-12-01T23:49:04.941Z,37.92
2022-12-01T23:51:35.364Z,38.60
2022-12-01T23:54:18.161Z,40.00
2022-12-01T23:56:50.067Z,38.33
2022-12-01T23:59:16.938Z,38.70
